createdAt,value
2022-12-11T00:01:39.862Z,4.42
2022-12-11T00:05:32.699Z,4.19
2022-12-11T00:09:25.240Z,4.17
2022-12-11T00:13:17.953Z,4.18
2022-12-11T00:17:10.789Z,4.14
2022-12-11T00:21:05.577Z,4.10
2022-12-11T00:24:58.252Z,4.11
2022-12-11T00:28:56.775Z,4.12
2022-12-11T00:32:52.088Z,4.21
2022-12-11T00:36:44.853Z,4.11
2022-12-11T00:40:37.628Z,3.97
2022-12-11T00:44:30.245Z,3.91
2022-12-11T00:48:23.129Z,3.87
2022-12-11T00:52:18.181Z,3.81
2022-12-11T00:56:17.005Z,3.70
2022-12-11T01:00:10.427Z,3.76
2022-12-11T01:04:03.094Z,3.86
2022-12-11T01:07:57.011Z,3.70
2022-12-11T01:11:49.903Z,3.89
2022-12-11T01:15:45.513Z,3.76
2022-12-11T01:19:38.351Z,3.77
2022-12-11T01:23:31.513Z,3.89
2022-12-11T01:27:24.100Z,3.66
2022-12-11T01:31:19.497Z,3.87
2022-12-11T01:35:13.104Z,3.60
2022-12-11T01:39:05.801Z,3.63
2022-12-11T01:42:58.617Z,3.52
2022-12-11T01:46:51.658Z,3.60
2022-12-11T01:50:58.642Z,3.39
2022-12-11T01:54:51.529Z,3.63
2022-12-11T01:58:51.974Z,3.38
2022-12-11T02:02:44.941Z,3.34
2022-12-11T02:06:47.424Z,3.29
2022-12-11T02:11:02.282Z,3.35
2022-12-11T02:15:07.015Z,3.29
2022-12-11T02:19:14.896Z,3.22
2022-12-11T02:23:13.577Z,3.11
2022-12-11T02:27:21.330Z,3.14
2022-12-11T02:31:34.770Z,3.01
2022-12-11T02:35:42.738Z,2.93
2022-12-11T02:39:38.431Z,2.94
2022-12-11T02:43:32.845Z,2.80
2022-12-11T02:47:28.527Z,2.86
2022-12-11T02:51:26.234Z,2.70
2022-12-11T02:55:20.080Z,2.72
2022-12-11T02:59:21.698Z,2.64
2022-12-11T03:03:15.212Z,2.49
2022-12-11T03:07:15.877Z,2.66
2022-12-11T03:11:12.038Z,2.57
2022-12-11T03:15:10.552Z,2.52
2022-12-11T03:19:38.685Z,2.50
2022-12-11T03:23:37.200Z,2.50
2022-12-11T03:27:52.393Z,2.48
2022-12-11T03:31:57.727Z,2.50
2022-12-11T03:35:59.254Z,2.35
2022-12-11T03:39:57.177Z,2.31
2022-12-11T03:43:53.505Z,2.29
2022-12-11T03:47:47.669Z,2.28
2022-12-11T03:51:42.466Z,2.32
2022-12-11T03:55:37.802Z,2.21
2022-12-11T03:59:30.416Z,2.29
2022-12-11T04:03:22.947Z,2.20
2022-12-11T04:07:15.743Z,2.25
2022-12-11T04:11:26.834Z,2.31
2022-12-11T04:15:19.355Z,2.25
2022-12-11T04:19:30.423Z,2.28
2022-12-11T04:23:42.160Z,2.24
2022-12-11T04:27:49.798Z,2.35
2022-12-11T04:31:42.700Z,2.36
2022-12-11T04:35:36.517Z,2.41
2022-12-11T04:39:29.307Z,2.41
2022-12-11T04:43:21.604Z,2.50
2022-12-11T04:47:14.713Z,2.54
2022-12-11T04:51:08.955Z,2.50
2022-12-11T04:55:01.605Z,2.46
2022-12-11T04:58:54.544Z,2.59
2022-12-11T05:02:47.311Z,2.52
2022-12-11T05:06:39.945Z,2.54
2022-12-11T05:10:32.585Z,2.56
2022-12-11T05:14:26.378Z,2.38
2022-12-11T05:18:18.927Z,2.38
2022-12-11T05:22:11.636Z,2.46
2022-12-11T05:26:07.758Z,2.60
2022-12-11T05:30:00.487Z,2.31
2022-12-11T05:33:54.376Z,2.43
2022-12-11T05:37:46.649Z,2.50
2022-12-11T05:41:39.392Z,2.39
2022-12-11T05:45:32.021Z,2.48
2022-12-11T05:49:30.552Z,2.52
2022-12-11T05:53:24.364Z,2.42
2022-12-11T05:57:17.447Z,2.50
2022-12-11T06:01:19.437Z,2.50
2022-12-11T06:05:12.206Z,2.52
2022-12-11T06:09:05.629Z,2.49
2022-12-11T06:12:58.277Z,2.46
2022-12-11T06:16:51.092Z,2.41
2022-12-11T06:20:44.001Z,2.49
2022-12-11T06:24:36.918Z,2.49
2022-12-11T06:28:29.502Z,2.54
2022-12-11T06:32:22.256Z,2.64
2022-12-11T06:36:20.146Z,2.56
2022-12-11T06:40:13.381Z,2.60
2022-12-11T06:44:06.078Z,2.53
2022-12-11T06:47:59.094Z,2.45
2022-12-11T06:51:51.846Z,2.49
2022-12-11T06:55:44.699Z,2.50
2022-12-11T06:59:37.479Z,2.56
2022-12-11T07:03:30.350Z,2.45
2022-12-11T07:07:23.047Z,2.60
2022-12-11T07:11:17.799Z,2.73
2022-12-11T07:15:10.972Z,2.59
2022-12-11T07:19:03.977Z,2.61
2022-12-11T07:22:56.420Z,2.87
2022-12-11T07:26:49.161Z,2.64
2022-12-11T07:30:41.733Z,2.72
2022-12-11T07:34:34.271Z,2.70
2022-12-11T07:38:27.224Z,2.72
2022-12-11T07:42:19.973Z,2.76
2022-12-11T07:46:15.228Z,2.64
2022-12-11T07:50:08.553Z,2.69
2022-12-11T07:54:05.172Z,2.81
2022-12-11T07:57:57.775Z,2.80
2022-12-11T08:01:51.706Z,2.84
2022-12-11T08:05:50.254Z,2.77
2022-12-11T08:09:42.833Z,2.77
2022-12-11T08:13:36.162Z,2.77
2022-12-11T08:17:30.951Z,2.77
2022-12-11T08:21:28.475Z,2.97
2022-12-11T08:25:21.455Z,2.88
2022-12-11T08:29:14.811Z,2.76
2022-12-11T08:33:07.665Z,2.84
2022-12-11T08:37:06.063Z,2.88
2022-12-11T08:40:59.632Z,2.80
2022-12-11T08:44:52.331Z,2.67
2022-12-11T08:48:45.211Z,2.81
2022-12-11T08:52:37.732Z,2.88
2022-12-11T08:56:30.718Z,2.77
2022-12-11T09:00:23.387Z,2.87
2022-12-11T09:04:16.235Z,2.88
2022-12-11T09:08:08.783Z,2.80
2022-12-11T09:12:01.919Z,2.83
2022-12-11T09:15:54.644Z,2.80
2022-12-11T09:19:47.234Z,2.93
2022-12-11T09:23:40.645Z,2.76
2022-12-11T09:27:34.691Z,2.83
2022-12-11T09:31:30.607Z,2.84
2022-12-11T09:35:23.334Z,2.84
2022-12-11T09:39:18.012Z,2.91
2022-12-11T09:43:25.676Z,2.88
2022-12-11T09:47:27.964Z,3.00
2022-12-11T09:51:29.533Z,2.81
2022-12-11T09:55:25.024Z,2.79
2022-12-11T09:59:32.523Z,2.91
2022-12-11T10:03:50.428Z,2.91
2022-12-11T10:07:50.963Z,2.97
2022-12-11T10:11:56.337Z,2.86
2022-12-11T10:16:04.367Z,2.87
2022-12-11T10:20:00.929Z,2.96
2022-12-11T10:24:01.161Z,3.04
2022-12-11T10:27:54.163Z,3.07
2022-12-11T10:31:59.275Z,3.09
2022-12-11T10:35:55.409Z,3.08
2022-12-11T10:39:47.993Z,3.08
2022-12-11T10:43:44.004Z,3.11
2022-12-11T10:47:36.792Z,3.12
2022-12-11T10:51:33.296Z,3.22
2022-12-11T10:55:34.472Z,3.25
2022-12-11T10:59:46.398Z,3.29
2022-12-11T11:03:53.904Z,3.31
2022-12-11T11:07:46.671Z,3.36
2022-12-11T11:11:39.760Z,3.55
2022-12-11T11:15:32.773Z,3.51
2022-12-11T11:19:31.478Z,3.51
2022-12-11T11:23:25.528Z,3.79
2022-12-11T11:27:30.260Z,3.80
2022-12-11T11:31:34.812Z,3.74
2022-12-11T11:35:29.322Z,3.80
2022-12-11T11:39:45.338Z,3.81
2022-12-11T11:43:43.861Z,3.87
2022-12-11T11:47:54.046Z,3.84
2022-12-11T11:51:56.604Z,3.95
2022-12-11T11:56:08.199Z,3.98
2022-12-11T12:00:15.630Z,4.11
2022-12-11T12:04:09.469Z,4.35
2022-12-11T12:08:17.456Z,4.31
2022-12-11T12:12:33.794Z,4.35
2022-12-11T12:16:56.335Z,4.21
2022-12-11T12:21:00.467Z,4.22
2022-12-11T12:25:18.902Z,4.27
2022-12-11T12:29:33.690Z,4.35
2022-12-11T12:33:31.191Z,4.18
2022-12-11T12:37:49.354Z,3.97
2022-12-11T12:41:48.315Z,4.04
2022-12-11T12:46:04.669Z,4.17
2022-12-11T12:50:00.425Z,4.15
2022-12-11T12:53:58.982Z,4.08
2022-12-11T12:58:00.701Z,4.01
2022-12-11T13:02:02.756Z,3.98
2022-12-11T13:05:59.921Z,3.94
2022-12-11T13:10:04.921Z,3.83
2022-12-11T13:14:15.673Z,3.94
2022-12-11T13:18:32.835Z,3.66
2022-12-11T13:22:25.743Z,3.62
2022-12-11T13:26:36.671Z,3.69
2022-12-11T13:30:30.382Z,3.69
2022-12-11T13:34:24.361Z,3.60
2022-12-11T13:38:20.807Z,3.67
2022-12-11T13:42:40.973Z,3.67
2022-12-11T13:46:36.931Z,3.77
2022-12-11T13:50:33.482Z,3.66
2022-12-11T13:54:29.118Z,3.43
2022-12-11T13:58:23.892Z,3.58
2022-12-11T14:02:28.161Z,3.32
2022-12-11T14:06:21.277Z,3.32
2022-12-11T14:10:24.994Z,3.31
2022-12-11T14:14:25.686Z,3.29
2022-12-11T14:18:23.138Z,3.07
2022-12-11T14:22:21.110Z,3.21
2022-12-11T14:26:28.615Z,3.14
2022-12-11T14:30:33.996Z,3.09
2022-12-11T14:34:47.951Z,2.79
2022-12-11T14:38:47.728Z,2.91
2022-12-11T14:42:46.155Z,2.87
2022-12-11T14:46:44.087Z,2.84
2022-12-11T14:50:43.856Z,2.64
2022-12-11T14:54:42.035Z,2.52
2022-12-11T14:58:42.876Z,2.50
2022-12-11T15:02:37.605Z,2.49
2022-12-11T15:06:36.309Z,2.43
2022-12-11T15:10:59.881Z,2.38
2022-12-11T15:14:57.058Z,2.39
2022-12-11T15:18:52.094Z,2.33
2022-12-11T15:22:45.315Z,2.39
2022-12-11T15:26:44.260Z,2.35
2022-12-11T15:30:37.065Z,2.10
2022-12-11T15:34:53.227Z,2.22
2022-12-11T15:38:49.107Z,2.10
2022-12-11T15:42:42.637Z,2.18
2022-12-11T15:46:38.310Z,2.14
2022-12-11T15:50:31.564Z,2.05
2022-12-11T15:54:24.471Z,2.12
2022-12-11T15:58:21.313Z,1.98
2022-12-11T16:02:14.328Z,2.03
2022-12-11T16:06:07.334Z,2.08
2022-12-11T16:10:00.377Z,1.95
2022-12-11T16:13:53.347Z,1.91
2022-12-11T16:17:45.998Z,1.93
2022-12-11T16:21:38.847Z,2.04
2022-12-11T16:25:33.127Z,2.04
2022-12-11T16:29:26.332Z,1.93
2022-12-11T16:33:20.000Z,2.08
2022-12-11T16:37:14.390Z,2.11
2022-12-11T16:41:07.379Z,1.91
2022-12-11T16:45:11.039Z,1.88
2022-12-11T16:49:04.945Z,2.14
2022-12-11T16:52:58.046Z,2.05
2022-12-11T16:56:51.433Z,1.97
2022-12-11T17:00:44.508Z,2.07
2022-12-11T17:04:40.866Z,1.94
2022-12-11T17:08:33.874Z,1.93
2022-12-11T17:12:28.718Z,1.85
2022-12-11T17:16:22.549Z,1.88
2022-12-11T17:20:15.979Z,2.00
2022-12-11T17:24:10.848Z,1.84
2022-12-11T17:28:03.897Z,1.93
2022-12-11T17:31:57.341Z,1.98
2022-12-11T17:35:50.777Z,1.83
2022-12-11T17:39:44.770Z,1.83
2022-12-11T17:43:37.998Z,1.80
2022-12-11T17:47:31.717Z,1.80
2022-12-11T17:51:25.435Z,1.80
2022-12-11T17:55:18.334Z,1.97
2022-12-11T17:59:11.496Z,1.78
2022-12-11T18:03:05.425Z,2.03
2022-12-11T18:07:00.146Z,1.94
2022-12-11T18:10:54.692Z,1.94
2022-12-11T18:14:47.530Z,1.90
2022-12-11T18:18:41.352Z,1.91
2022-12-11T18:22:35.161Z,1.81
2022-12-11T18:26:28.693Z,1.81
2022-12-11T18:30:24.194Z,1.85
2022-12-11T18:34:25.929Z,1.76
2022-12-11T18:38:19.118Z,1.95
2022-12-11T18:46:26.651Z,1.68
2022-12-11T18:50:19.877Z,1.63
2022-12-11T18:54:14.248Z,1.68
2022-12-11T18:58:09.537Z,1.67
2022-12-11T19:02:03.195Z,1.81
2022-12-11T19:05:58.527Z,1.76
2022-12-11T19:09:52.014Z,1.81
2022-12-11T19:13:46.434Z,1.60
2022-12-11T19:17:40.124Z,1.76
2022-12-11T19:21:40.526Z,1.85
2022-12-11T19:25:34.603Z,1.68
2022-12-11T19:29:32.867Z,1.63
2022-12-11T19:33:26.313Z,1.63
2022-12-11T19:37:20.415Z,1.49
2022-12-11T19:41:32.360Z,1.64
2022-12-11T19:45:25.625Z,1.50
2022-12-11T19:49:19.897Z,1.47
2022-12-11T19:53:13.759Z,1.42
2022-12-11T19:57:07.224Z,1.52
2022-12-11T20:01:01.620Z,1.42
2022-12-11T20:04:55.880Z,1.45
2022-12-11T20:08:50.177Z,1.32
2022-12-11T20:12:44.764Z,1.21
2022-12-11T20:20:52.873Z,1.12
2022-12-11T20:24:46.547Z,1.18
2022-12-11T20:28:40.423Z,1.07
2022-12-11T20:32:35.189Z,0.91
2022-12-11T20:36:30.137Z,0.83
2022-12-11T20:40:23.419Z,0.90
2022-12-11T20:44:16.617Z,0.64
2022-12-11T20:48:10.039Z,0.63
2022-12-11T20:52:05.214Z,0.67
2022-12-11T20:55:58.548Z,0.70
2022-12-11T20:59:51.902Z,0.57
2022-12-11T21:03:46.361Z,0.45
2022-12-11T21:07:41.127Z,0.45
2022-12-11T21:11:34.646Z,0.42
2022-12-11T21:15:27.443Z,0.74
2022-12-11T21:19:24.133Z,0.60
2022-12-11T21:23:17.584Z,0.70
2022-12-11T21:27:11.516Z,0.69
2022-12-11T21:31:12.148Z,0.56
2022-12-11T21:35:05.670Z,0.45
2022-12-11T21:39:00.096Z,0.59
2022-12-11T21:42:53.385Z,0.57
2022-12-11T21:46:46.643Z,0.56
2022-12-11T21:50:40.540Z,0.48
2022-12-11T21:54:33.575Z,0.46
2022-12-11T21:58:26.180Z,0.32
2022-12-11T22:02:18.814Z,0.36
2022-12-11T22:06:11.939Z,0.45
2022-12-11T22:10:05.693Z,0.32
2022-12-11T22:13:58.638Z,0.42
2022-12-11T22:17:51.396Z,0.39
2022-12-11T22:21:44.644Z,0.63
2022-12-11T22:25:37.329Z,0.33
2022-12-11T22:29:29.763Z,0.28
2022-12-11T22:33:22.690Z,0.41
2022-12-11T22:37:15.303Z,0.24
2022-12-11T22:41:24.951Z,0.21
2022-12-11T22:45:17.911Z,0.26
2022-12-11T22:49:10.753Z,0.19
2022-12-11T22:53:04.654Z,0.14
2022-12-11T22:56:57.758Z,0.08
2022-12-11T23:00:50.705Z,0.11
2022-12-11T23:04:43.416Z,0.09
2022-12-11T23:08:36.404Z,0.06
2022-12-11T23:12:29.048Z,0.02
2022-12-11T23:16:26.012Z,-0.05
2022-12-11T23:20:19.393Z,-0.01
2022-12-11T23:24:11.982Z,-0.12
2022-12-11T23:28:04.714Z,-0.12
2022-12-11T23:31:59.140Z,-0.10
2022-12-11T23:35:51.965Z,-0.30
2022-12-11T23:39:44.497Z,-0.14
2022-12-11T23:43:38.134Z,-0.12
2022-12-11T23:47:31.087Z,-0.12
2022-12-11T23:51:25.670Z,-0.02
2022-12-11T23:55:18.493Z,-0.24
2022-12-11T23:59:14.942Z,-0.22
